sensor_id;sensor_type;location;lat;lon;timestamp;P1;durP1;ratioP1;P2;durP2;ratioP2
20076;SDS011;12348;42.710;23.378;2022-10-03T00:00:19;4.27;;;3.10;;
20076;SDS011;12348;42.710;23.378;2022-10-03T00:05:44;4.17;;;3.23;;
20076;SDS011;12348;42.710;23.378;2022-10-03T00:08:26;3.93;;;2.97;;
20076;SDS011;12348;42.710;23.378;2022-10-03T00:11:07;4.53;;;3.20;;
20076;SDS011;12348;42.710;23.378;2022-10-03T00:13:48;5.70;;;2.70;;
20076;SDS011;12348;42.710;23.378;2022-10-03T00:16:24;3.77;;;3.30;;
20076;SDS011;12348;42.710;23.378;2022-10-03T00:19:06;4.23;;;3.50;;
20076;SDS011;12348;42.710;23.378;2022-10-03T00:21:45;4.53;;;2.87;;
20076;SDS011;12348;42.710;23.378;2022-10-03T00:24:30;5.87;;;3.00;;
20076;SDS011;12348;42.710;23.378;2022-10-03T00:27:10;5.37;;;3.53;;
20076;SDS011;12348;42.710;23.378;2022-10-03T00:29:48;4.13;;;3.13;;
20076;SDS011;12348;42.710;23.378;2022-10-03T00:32:28;4.57;;;3.27;;
20076;SDS011;12348;42.710;23.378;2022-10-03T00:35:16;4.07;;;3.20;;
20076;SDS011;12348;42.710;23.378;2022-10-03T00:37:55;5.60;;;4.33;;
20076;SDS011;12348;42.710;23.378;2022-10-03T00:46:56;7.13;;;4.17;;
20076;SDS011;12348;42.710;23.378;2022-10-03T00:49:57;6.47;;;4.03;;
20076;SDS011;12348;42.710;23.378;2022-10-03T00:52:50;7.67;;;4.10;;
20076;SDS011;12348;42.710;23.378;2022-10-03T00:55:39;6.57;;;4.30;;
20076;SDS011;12348;42.710;23.378;2022-10-03T00:58:22;11.33;;;4.40;;
20076;SDS011;12348;42.710;23.378;2022-10-03T01:01:19;4.47;;;3.70;;
20076;SDS011;12348;42.710;23.378;2022-10-03T01:03:53;6.03;;;3.97;;
20076;SDS011;12348;42.710;23.378;2022-10-03T01:06:31;4.30;;;3.27;;
20076;SDS011;12348;42.710;23.378;2022-10-03T01:09:11;5.13;;;3.67;;
20076;SDS011;12348;42.710;23.378;2022-10-03T01:12:03;3.43;;;3.10;;
20076;SDS011;12348;42.710;23.378;2022-10-03T01:14:51;4.50;;;3.10;;
20076;SDS011;12348;42.710;23.378;2022-10-03T01:17:30;4.83;;;3.53;;
20076;SDS011;12348;42.710;23.378;2022-10-03T01:20:08;5.17;;;3.53;;
20076;SDS011;12348;42.710;23.378;2022-10-03T01:22:51;4.67;;;3.63;;
20076;SDS011;12348;42.710;23.378;2022-10-03T01:25:38;6.87;;;3.67;;
20076;SDS011;12348;42.710;23.378;2022-10-03T01:28:22;5.13;;;3.77;;
20076;SDS011;12348;42.710;23.378;2022-10-03T01:31:22;6.13;;;4.00;;
20076;SDS011;12348;42.710;23.378;2022-10-03T01:33:56;5.17;;;3.80;;
20076;SDS011;12348;42.710;23.378;2022-10-03T01:36:30;7.03;;;4.20;;
20076;SDS011;12348;42.710;23.378;2022-10-03T01:39:01;5.83;;;4.23;;
20076;SDS011;12348;42.710;23.378;2022-10-03T01:41:41;5.17;;;3.87;;
20076;SDS011;12348;42.710;23.378;2022-10-03T01:44:17;5.70;;;3.60;;
20076;SDS011;12348;42.710;23.378;2022-10-03T01:46:49;9.07;;;4.03;;
20076;SDS011;12348;42.710;23.378;2022-10-03T01:49:22;4.87;;;3.10;;
20076;SDS011;12348;42.710;23.378;2022-10-03T01:51:54;9.17;;;3.03;;
20076;SDS011;12348;42.710;23.378;2022-10-03T01:54:29;8.13;;;3.93;;
20076;SDS011;12348;42.710;23.378;2022-10-03T01:57:08;5.17;;;4.10;;
20076;SDS011;12348;42.710;23.378;2022-10-03T01:59:44;5.17;;;3.90;;
20076;SDS011;12348;42.710;23.378;2022-10-03T02:02:16;8.30;;;4.07;;
20076;SDS011;12348;42.710;23.378;2022-10-03T02:04:56;5.60;;;4.07;;
20076;SDS011;12348;42.710;23.378;2022-10-03T02:07:34;8.30;;;4.30;;
20076;SDS011;12348;42.710;23.378;2022-10-03T02:10:08;10.17;;;4.30;;
20076;SDS011;12348;42.710;23.378;2022-10-03T02:12:47;6.60;;;3.77;;
20076;SDS011;12348;42.710;23.378;2022-10-03T02:15:23;4.07;;;3.37;;
20076;SDS011;12348;42.710;23.378;2022-10-03T02:17:54;4.20;;;3.10;;
20076;SDS011;12348;42.710;23.378;2022-10-03T02:20:25;6.23;;;3.83;;
20076;SDS011;12348;42.710;23.378;2022-10-03T02:23:00;6.60;;;3.87;;
20076;SDS011;12348;42.710;23.378;2022-10-03T02:25:35;7.53;;;3.73;;
20076;SDS011;12348;42.710;23.378;2022-10-03T02:28:34;6.20;;;3.50;;
20076;SDS011;12348;42.710;23.378;2022-10-03T02:34:35;3.80;;;3.50;;
20076;SDS011;12348;42.710;23.378;2022-10-03T02:40:38;3.77;;;3.37;;
20076;SDS011;12348;42.710;23.378;2022-10-03T02:46:25;4.13;;;3.20;;
20076;SDS011;12348;42.710;23.378;2022-10-03T02:55:23;5.97;;;3.03;;
20076;SDS011;12348;42.710;23.378;2022-10-03T02:58:16;3.50;;;3.10;;
20076;SDS011;12348;42.710;23.378;2022-10-03T03:04:19;8.30;;;3.63;;
20076;SDS011;12348;42.710;23.378;2022-10-03T03:07:10;9.53;;;3.67;;
20076;SDS011;12348;42.710;23.378;2022-10-03T03:13:13;4.93;;;4.00;;
20076;SDS011;12348;42.710;23.378;2022-10-03T03:19:25;5.37;;;4.00;;
20076;SDS011;12348;42.710;23.378;2022-10-03T03:22:06;8.80;;;3.70;;
20076;SDS011;12348;42.710;23.378;2022-10-03T03:24:50;5.77;;;4.10;;
20076;SDS011;12348;42.710;23.378;2022-10-03T03:27:30;5.23;;;4.17;;
20076;SDS011;12348;42.710;23.378;2022-10-03T03:30:09;7.03;;;4.17;;
20076;SDS011;12348;42.710;23.378;2022-10-03T03:32:42;3.93;;;3.43;;
20076;SDS011;12348;42.710;23.378;2022-10-03T03:35:26;4.00;;;3.50;;
20076;SDS011;12348;42.710;23.378;2022-10-03T03:38:05;7.60;;;4.07;;
20076;SDS011;12348;42.710;23.378;2022-10-03T03:40:44;7.07;;;3.77;;
20076;SDS011;12348;42.710;23.378;2022-10-03T03:43:36;6.10;;;4.50;;
20076;SDS011;12348;42.710;23.378;2022-10-03T03:46:15;3.77;;;3.40;;
20076;SDS011;12348;42.710;23.378;2022-10-03T03:49:02;4.73;;;4.20;;
20076;SDS011;12348;42.710;23.378;2022-10-03T03:51:49;5.43;;;3.97;;
20076;SDS011;12348;42.710;23.378;2022-10-03T03:57:27;5.57;;;4.07;;
20076;SDS011;12348;42.710;23.378;2022-10-03T04:00:11;4.80;;;4.00;;
20076;SDS011;12348;42.710;23.378;2022-10-03T04:02:44;6.40;;;4.43;;
20076;SDS011;12348;42.710;23.378;2022-10-03T04:08:32;5.73;;;4.83;;
20076;SDS011;12348;42.710;23.378;2022-10-03T04:11:13;7.77;;;5.10;;
20076;SDS011;12348;42.710;23.378;2022-10-03T04:14:05;6.23;;;4.50;;
20076;SDS011;12348;42.710;23.378;2022-10-03T04:16:55;7.63;;;5.13;;
20076;SDS011;12348;42.710;23.378;2022-10-03T04:19:56;4.13;;;3.43;;
20076;SDS011;12348;42.710;23.378;2022-10-03T04:22:43;7.73;;;4.93;;
20076;SDS011;12348;42.710;23.378;2022-10-03T04:25:28;6.27;;;4.50;;
20076;SDS011;12348;42.710;23.378;2022-10-03T04:28:26;5.83;;;4.47;;
20076;SDS011;12348;42.710;23.378;2022-10-03T04:31:05;5.10;;;3.87;;
20076;SDS011;12348;42.710;23.378;2022-10-03T04:33:48;5.67;;;3.47;;
20076;SDS011;12348;42.710;23.378;2022-10-03T04:36:46;7.77;;;4.57;;
20076;SDS011;12348;42.710;23.378;2022-10-03T04:39:43;6.37;;;4.37;;
20076;SDS011;12348;42.710;23.378;2022-10-03T04:42:22;8.37;;;4.37;;
20076;SDS011;12348;42.710;23.378;2022-10-03T04:45:09;6.43;;;4.17;;
20076;SDS011;12348;42.710;23.378;2022-10-03T04:47:43;4.83;;;3.83;;
20076;SDS011;12348;42.710;23.378;2022-10-03T04:50:19;7.33;;;4.07;;
20076;SDS011;12348;42.710;23.378;2022-10-03T04:52:56;9.17;;;4.07;;
20076;SDS011;12348;42.710;23.378;2022-10-03T04:55:38;5.50;;;3.50;;
20076;SDS011;12348;42.710;23.378;2022-10-03T04:58:14;5.60;;;3.60;;
20076;SDS011;12348;42.710;23.378;2022-10-03T05:00:56;4.67;;;3.73;;
20076;SDS011;12348;42.710;23.378;2022-10-03T05:03:33;5.43;;;3.10;;
20076;SDS011;12348;42.710;23.378;2022-10-03T05:06:14;6.67;;;3.67;;
20076;SDS011;12348;42.710;23.378;2022-10-03T05:08:51;5.20;;;3.20;;
20076;SDS011;12348;42.710;23.378;2022-10-03T05:11:25;4.43;;;3.03;;
20076;SDS011;12348;42.710;23.378;2022-10-03T05:14:04;7.43;;;3.60;;
20076;SDS011;12348;42.710;23.378;2022-10-03T05:16:39;5.17;;;4.20;;
20076;SDS011;12348;42.710;23.378;2022-10-03T05:22:31;6.73;;;4.17;;
20076;SDS011;12348;42.710;23.378;2022-10-03T05:25:12;11.40;;;4.40;;
20076;SDS011;12348;42.710;23.378;2022-10-03T05:27:46;7.53;;;3.43;;
20076;SDS011;12348;42.710;23.378;2022-10-03T05:30:23;5.43;;;3.53;;
20076;SDS011;12348;42.710;23.378;2022-10-03T05:33:06;6.43;;;3.70;;
20076;SDS011;12348;42.710;23.378;2022-10-03T05:35:47;7.63;;;4.33;;
20076;SDS011;12348;42.710;23.378;2022-10-03T05:41:25;6.80;;;4.57;;
20076;SDS011;12348;42.710;23.378;2022-10-03T05:44:00;8.60;;;4.17;;
20076;SDS011;12348;42.710;23.378;2022-10-03T05:46:37;6.73;;;3.93;;
20076;SDS011;12348;42.710;23.378;2022-10-03T05:49:18;11.23;;;3.60;;
20076;SDS011;12348;42.710;23.378;2022-10-03T05:52:01;7.23;;;4.37;;
20076;SDS011;12348;42.710;23.378;2022-10-03T06:01:04;10.47;;;5.27;;
20076;SDS011;12348;42.710;23.378;2022-10-03T06:03:56;8.37;;;5.03;;
20076;SDS011;12348;42.710;23.378;2022-10-03T06:06:44;4.93;;;3.73;;
20076;SDS011;12348;42.710;23.378;2022-10-03T06:09:23;8.00;;;4.00;;
20076;SDS011;12348;42.710;23.378;2022-10-03T06:12:06;7.53;;;4.13;;
20076;SDS011;12348;42.710;23.378;2022-10-03T06:17:48;6.07;;;3.70;;
20076;SDS011;12348;42.710;23.378;2022-10-03T06:23:26;4.83;;;3.10;;
20076;SDS011;12348;42.710;23.378;2022-10-03T06:29:38;4.27;;;3.17;;
20076;SDS011;12348;42.710;23.378;2022-10-03T06:35:26;11.00;;;5.13;;
20076;SDS011;12348;42.710;23.378;2022-10-03T06:38:21;5.30;;;3.30;;
20076;SDS011;12348;42.710;23.378;2022-10-03T06:41:16;10.40;;;6.20;;
20076;SDS011;12348;42.710;23.378;2022-10-03T06:44:11;10.63;;;5.93;;
20076;SDS011;12348;42.710;23.378;2022-10-03T06:50:15;9.30;;;5.47;;
20076;SDS011;12348;42.710;23.378;2022-10-03T06:52:55;5.67;;;4.00;;
20076;SDS011;12348;42.710;23.378;2022-10-03T06:55:42;6.57;;;4.23;;
20076;SDS011;12348;42.710;23.378;2022-10-03T06:58:25;8.57;;;4.90;;
20076;SDS011;12348;42.710;23.378;2022-10-03T07:01:19;7.30;;;4.80;;
20076;SDS011;12348;42.710;23.378;2022-10-03T07:04:14;7.00;;;4.30;;
20076;SDS011;12348;42.710;23.378;2022-10-03T07:06:59;6.53;;;3.97;;
20076;SDS011;12348;42.710;23.378;2022-10-03T07:09:56;7.37;;;4.50;;
20076;SDS011;12348;42.710;23.378;2022-10-03T07:12:50;10.20;;;4.33;;
20076;SDS011;12348;42.710;23.378;2022-10-03T07:15:44;10.20;;;3.67;;
20076;SDS011;12348;42.710;23.378;2022-10-03T07:21:37;5.53;;;3.00;;
20076;SDS011;12348;42.710;23.378;2022-10-03T07:24:17;5.23;;;2.80;;
20076;SDS011;12348;42.710;23.378;2022-10-03T07:27:18;4.83;;;3.00;;
20076;SDS011;12348;42.710;23.378;2022-10-03T07:30:05;7.23;;;3.57;;
20076;SDS011;12348;42.710;23.378;2022-10-03T07:39:16;5.20;;;3.20;;
20076;SDS011;12348;42.710;23.378;2022-10-03T07:45:29;14.97;;;7.40;;
20076;SDS011;12348;42.710;23.378;2022-10-03T07:51:13;11.73;;;4.63;;
20076;SDS011;12348;42.710;23.378;2022-10-03T07:53:59;4.33;;;3.87;;
20076;SDS011;12348;42.710;23.378;2022-10-03T07:56:49;4.23;;;3.53;;
20076;SDS011;12348;42.710;23.378;2022-10-03T08:02:42;5.17;;;4.43;;
20076;SDS011;12348;42.710;23.378;2022-10-03T08:05:35;7.57;;;4.77;;
20076;SDS011;12348;42.710;23.378;2022-10-03T08:14:30;16.60;;;7.50;;
20076;SDS011;12348;42.710;23.378;2022-10-03T08:17:10;12.50;;;7.33;;
20076;SDS011;12348;42.710;23.378;2022-10-03T08:20:04;9.60;;;6.30;;
20076;SDS011;12348;42.710;23.378;2022-10-03T08:22:58;17.63;;;9.03;;
20076;SDS011;12348;42.710;23.378;2022-10-03T08:25:48;12.17;;;7.17;;
20076;SDS011;12348;42.710;23.378;2022-10-03T08:28:28;9.70;;;6.40;;
20076;SDS011;12348;42.710;23.378;2022-10-03T08:34:17;14.73;;;7.37;;
20076;SDS011;12348;42.710;23.378;2022-10-03T08:37:14;8.70;;;5.73;;
20076;SDS011;12348;42.710;23.378;2022-10-03T08:43:29;7.17;;;5.00;;
20076;SDS011;12348;42.710;23.378;2022-10-03T08:52:46;4.03;;;3.23;;
20076;SDS011;12348;42.710;23.378;2022-10-03T08:55:39;11.07;;;3.63;;
20076;SDS011;12348;42.710;23.378;2022-10-03T09:01:14;4.10;;;3.00;;
20076;SDS011;12348;42.710;23.378;2022-10-03T09:04:06;7.63;;;2.77;;
20076;SDS011;12348;42.710;23.378;2022-10-03T09:07:10;5.67;;;3.10;;
20076;SDS011;12348;42.710;23.378;2022-10-03T09:13:05;3.77;;;2.97;;
20076;SDS011;12348;42.710;23.378;2022-10-03T09:19:01;3.43;;;2.30;;
20076;SDS011;12348;42.710;23.378;2022-10-03T09:28:04;2.70;;;1.93;;
20076;SDS011;12348;42.710;23.378;2022-10-03T09:30:54;3.73;;;1.90;;
20076;SDS011;12348;42.710;23.378;2022-10-03T09:46:02;4.07;;;2.57;;
20076;SDS011;12348;42.710;23.378;2022-10-03T09:52:05;5.53;;;1.80;;
20076;SDS011;12348;42.710;23.378;2022-10-03T09:54:55;3.93;;;1.80;;
20076;SDS011;12348;42.710;23.378;2022-10-03T09:57:45;3.60;;;2.20;;
20076;SDS011;12348;42.710;23.378;2022-10-03T10:00:25;2.87;;;2.33;;
20076;SDS011;12348;42.710;23.378;2022-10-03T10:03:04;2.97;;;2.30;;
20076;SDS011;12348;42.710;23.378;2022-10-03T10:12:00;1.70;;;1.20;;
20076;SDS011;12348;42.710;23.378;2022-10-03T10:14:43;2.20;;;1.57;;
20076;SDS011;12348;42.710;23.378;2022-10-03T10:17:36;4.57;;;2.17;;
20076;SDS011;12348;42.710;23.378;2022-10-03T10:20:28;2.03;;;1.60;;
20076;SDS011;12348;42.710;23.378;2022-10-03T10:26:03;1.43;;;1.20;;
20076;SDS011;12348;42.710;23.378;2022-10-03T10:29:05;1.40;;;1.30;;
20076;SDS011;12348;42.710;23.378;2022-10-03T10:59:46;1.73;;;1.10;;
20076;SDS011;12348;42.710;23.378;2022-10-03T11:05:39;3.80;;;1.50;;
20076;SDS011;12348;42.710;23.378;2022-10-03T11:11:58;1.53;;;1.30;;
20076;SDS011;12348;42.710;23.378;2022-10-03T11:27:42;3.93;;;2.00;;
20076;SDS011;12348;42.710;23.378;2022-10-03T11:30:42;2.10;;;1.90;;
20076;SDS011;12348;42.710;23.378;2022-10-03T11:33:44;2.57;;;2.00;;
20076;SDS011;12348;42.710;23.378;2022-10-03T11:36:53;3.23;;;2.20;;
20076;SDS011;12348;42.710;23.378;2022-10-03T11:39:42;2.60;;;2.10;;
20076;SDS011;12348;42.710;23.378;2022-10-03T11:42:18;2.70;;;1.90;;
20076;SDS011;12348;42.710;23.378;2022-10-03T11:44:58;2.73;;;2.33;;
20076;SDS011;12348;42.710;23.378;2022-10-03T11:47:38;2.13;;;1.83;;
20076;SDS011;12348;42.710;23.378;2022-10-03T11:50:21;4.43;;;2.70;;
20076;SDS011;12348;42.710;23.378;2022-10-03T11:53:09;3.23;;;2.50;;
20076;SDS011;12348;42.710;23.378;2022-10-03T11:55:46;3.87;;;2.47;;
20076;SDS011;12348;42.710;23.378;2022-10-03T11:58:33;9.63;;;2.90;;
20076;SDS011;12348;42.710;23.378;2022-10-03T12:04:06;4.37;;;3.30;;
20076;SDS011;12348;42.710;23.378;2022-10-03T12:06:45;4.50;;;2.23;;
20076;SDS011;12348;42.710;23.378;2022-10-03T12:09:44;3.80;;;3.20;;
20076;SDS011;12348;42.710;23.378;2022-10-03T12:12:22;7.37;;;3.33;;
20076;SDS011;12348;42.710;23.378;2022-10-03T12:14:56;3.87;;;2.43;;
20076;SDS011;12348;42.710;23.378;2022-10-03T12:17:30;3.93;;;3.17;;
20076;SDS011;12348;42.710;23.378;2022-10-03T12:20:01;4.70;;;2.50;;
20076;SDS011;12348;42.710;23.378;2022-10-03T12:22:41;2.80;;;2.47;;
20076;SDS011;12348;42.710;23.378;2022-10-03T12:25:17;3.53;;;2.30;;
20076;SDS011;12348;42.710;23.378;2022-10-03T12:27:49;3.03;;;2.63;;
20076;SDS011;12348;42.710;23.378;2022-10-03T12:30:22;3.90;;;2.70;;
20076;SDS011;12348;42.710;23.378;2022-10-03T12:32:58;6.27;;;2.60;;
20076;SDS011;12348;42.710;23.378;2022-10-03T12:35:40;9.13;;;2.97;;
20076;SDS011;12348;42.710;23.378;2022-10-03T12:38:20;5.77;;;3.40;;
20076;SDS011;12348;42.710;23.378;2022-10-03T12:41:02;3.73;;;3.20;;
20076;SDS011;12348;42.710;23.378;2022-10-03T12:43:45;3.53;;;3.00;;
20076;SDS011;12348;42.710;23.378;2022-10-03T12:46:24;4.57;;;2.77;;
20076;SDS011;12348;42.710;23.378;2022-10-03T12:48:59;3.47;;;2.87;;
20076;SDS011;12348;42.710;23.378;2022-10-03T12:51:36;6.60;;;2.47;;
20076;SDS011;12348;42.710;23.378;2022-10-03T12:54:14;3.63;;;2.63;;
20076;SDS011;12348;42.710;23.378;2022-10-03T12:56:59;3.03;;;2.63;;
20076;SDS011;12348;42.710;23.378;2022-10-03T12:59:39;5.63;;;2.47;;
20076;SDS011;12348;42.710;23.378;2022-10-03T13:02:20;4.50;;;2.67;;
20076;SDS011;12348;42.710;23.378;2022-10-03T13:04:57;2.50;;;2.17;;
20076;SDS011;12348;42.710;23.378;2022-10-03T13:07:48;3.20;;;2.90;;
20076;SDS011;12348;42.710;23.378;2022-10-03T13:10:24;3.73;;;2.17;;
20076;SDS011;12348;42.710;23.378;2022-10-03T13:13:02;3.67;;;3.00;;
20076;SDS011;12348;42.710;23.378;2022-10-03T13:15:41;3.20;;;2.40;;
20076;SDS011;12348;42.710;23.378;2022-10-03T13:21:16;5.77;;;2.77;;
20076;SDS011;12348;42.710;23.378;2022-10-03T13:23:46;3.13;;;2.83;;
20076;SDS011;12348;42.710;23.378;2022-10-03T13:26:19;3.90;;;2.60;;
20076;SDS011;12348;42.710;23.378;2022-10-03T13:29:02;3.67;;;2.77;;
20076;SDS011;12348;42.710;23.378;2022-10-03T13:31:59;2.97;;;2.57;;
20076;SDS011;12348;42.710;23.378;2022-10-03T13:34:36;6.03;;;2.33;;
20076;SDS011;12348;42.710;23.378;2022-10-03T13:37:13;5.97;;;2.30;;
20076;SDS011;12348;42.710;23.378;2022-10-03T13:39:48;3.73;;;2.17;;
20076;SDS011;12348;42.710;23.378;2022-10-03T13:42:18;1.80;;;1.70;;
20076;SDS011;12348;42.710;23.378;2022-10-03T13:44:48;2.60;;;2.40;;
20076;SDS011;12348;42.710;23.378;2022-10-03T13:47:24;2.60;;;2.40;;
20076;SDS011;12348;42.710;23.378;2022-10-03T13:49:56;2.77;;;2.57;;
20076;SDS011;12348;42.710;23.378;2022-10-03T13:52:30;3.10;;;2.37;;
20076;SDS011;12348;42.710;23.378;2022-10-03T13:55:14;2.90;;;2.37;;
20076;SDS011;12348;42.710;23.378;2022-10-03T13:57:56;3.03;;;2.57;;
20076;SDS011;12348;42.710;23.378;2022-10-03T14:00:40;3.40;;;2.63;;
20076;SDS011;12348;42.710;23.378;2022-10-03T14:03:20;5.60;;;2.63;;
20076;SDS011;12348;42.710;23.378;2022-10-03T14:05:57;3.23;;;2.70;;
20076;SDS011;12348;42.710;23.378;2022-10-03T14:08:54;7.50;;;4.10;;
20076;SDS011;12348;42.710;23.378;2022-10-03T14:11:34;5.20;;;2.93;;
20076;SDS011;12348;42.710;23.378;2022-10-03T14:14:26;5.00;;;2.93;;
20076;SDS011;12348;42.710;23.378;2022-10-03T14:17:14;5.67;;;3.23;;
20076;SDS011;12348;42.710;23.378;2022-10-03T14:19:55;7.37;;;4.50;;
20076;SDS011;12348;42.710;23.378;2022-10-03T14:22:40;3.43;;;2.10;;
20076;SDS011;12348;42.710;23.378;2022-10-03T14:25:20;3.83;;;2.33;;
20076;SDS011;12348;42.710;23.378;2022-10-03T14:27:52;3.97;;;2.10;;
20076;SDS011;12348;42.710;23.378;2022-10-03T14:30:21;2.07;;;1.43;;
20076;SDS011;12348;42.710;23.378;2022-10-03T14:35:45;6.00;;;2.37;;
20076;SDS011;12348;42.710;23.378;2022-10-03T14:38:27;1.87;;;1.70;;
20076;SDS011;12348;42.710;23.378;2022-10-03T14:41:21;2.27;;;1.60;;
20076;SDS011;12348;42.710;23.378;2022-10-03T14:43:53;2.03;;;1.87;;
20076;SDS011;12348;42.710;23.378;2022-10-03T14:46:22;2.00;;;1.80;;
20076;SDS011;12348;42.710;23.378;2022-10-03T14:48:51;2.53;;;2.20;;
20076;SDS011;12348;42.710;23.378;2022-10-03T14:51:24;4.20;;;2.07;;
20076;SDS011;12348;42.710;23.378;2022-10-03T14:53:56;2.83;;;2.30;;
20076;SDS011;12348;42.710;23.378;2022-10-03T14:56:28;4.63;;;2.37;;
20076;SDS011;12348;42.710;23.378;2022-10-03T14:59:00;2.57;;;2.37;;
20076;SDS011;12348;42.710;23.378;2022-10-03T15:01:36;7.10;;;3.30;;
20076;SDS011;12348;42.710;23.378;2022-10-03T15:04:14;3.17;;;2.40;;
20076;SDS011;12348;42.710;23.378;2022-10-03T15:06:49;2.77;;;2.57;;
20076;SDS011;12348;42.710;23.378;2022-10-03T15:09:23;6.70;;;2.60;;
20076;SDS011;12348;42.710;23.378;2022-10-03T15:11:58;2.33;;;2.13;;
20076;SDS011;12348;42.710;23.378;2022-10-03T15:14:29;4.53;;;2.40;;
20076;SDS011;12348;42.710;23.378;2022-10-03T15:17:00;2.73;;;2.37;;
20076;SDS011;12348;42.710;23.378;2022-10-03T15:19:39;2.30;;;1.77;;
20076;SDS011;12348;42.710;23.378;2022-10-03T15:22:24;5.57;;;2.00;;
20076;SDS011;12348;42.710;23.378;2022-10-03T15:24:56;2.10;;;1.80;;
20076;SDS011;12348;42.710;23.378;2022-10-03T15:27:27;4.03;;;2.10;;
20076;SDS011;12348;42.710;23.378;2022-10-03T15:29:56;2.73;;;1.80;;
20076;SDS011;12348;42.710;23.378;2022-10-03T15:32:26;2.60;;;2.23;;
20076;SDS011;12348;42.710;23.378;2022-10-03T15:34:59;3.17;;;2.27;;
20076;SDS011;12348;42.710;23.378;2022-10-03T15:37:29;2.43;;;2.23;;
20076;SDS011;12348;42.710;23.378;2022-10-03T15:40:00;4.40;;;2.00;;
20076;SDS011;12348;42.710;23.378;2022-10-03T15:42:36;3.37;;;2.67;;
20076;SDS011;12348;42.710;23.378;2022-10-03T15:45:16;2.30;;;2.10;;
20076;SDS011;12348;42.710;23.378;2022-10-03T15:47:46;2.83;;;2.23;;
20076;SDS011;12348;42.710;23.378;2022-10-03T15:50:16;3.33;;;2.50;;
20076;SDS011;12348;42.710;23.378;2022-10-03T15:52:49;2.40;;;2.20;;
20076;SDS011;12348;42.710;23.378;2022-10-03T15:55:18;4.53;;;2.63;;
20076;SDS011;12348;42.710;23.378;2022-10-03T15:57:51;3.60;;;2.43;;
20076;SDS011;12348;42.710;23.378;2022-10-03T16:00:25;2.93;;;2.40;;
20076;SDS011;12348;42.710;23.378;2022-10-03T16:02:56;2.80;;;2.50;;
20076;SDS011;12348;42.710;23.378;2022-10-03T16:05:33;2.67;;;2.23;;
20076;SDS011;12348;42.710;23.378;2022-10-03T16:08:03;5.77;;;2.77;;
20076;SDS011;12348;42.710;23.378;2022-10-03T16:10:35;3.43;;;2.63;;
20076;SDS011;12348;42.710;23.378;2022-10-03T16:13:08;3.97;;;2.40;;
20076;SDS011;12348;42.710;23.378;2022-10-03T16:15:51;5.30;;;2.50;;
20076;SDS011;12348;42.710;23.378;2022-10-03T16:18:43;3.63;;;2.60;;
20076;SDS011;12348;42.710;23.378;2022-10-03T16:21:18;2.97;;;2.67;;
20076;SDS011;12348;42.710;23.378;2022-10-03T16:23:55;6.10;;;3.10;;
20076;SDS011;12348;42.710;23.378;2022-10-03T16:26:25;9.57;;;3.90;;
20076;SDS011;12348;42.710;23.378;2022-10-03T16:28:59;5.67;;;3.47;;
20076;SDS011;12348;42.710;23.378;2022-10-03T16:31:35;3.77;;;2.63;;
20076;SDS011;12348;42.710;23.378;2022-10-03T16:34:05;3.73;;;2.30;;
20076;SDS011;12348;42.710;23.378;2022-10-03T16:36:40;4.23;;;2.73;;
20076;SDS011;12348;42.710;23.378;2022-10-03T16:39:14;2.53;;;2.30;;
20076;SDS011;12348;42.710;23.378;2022-10-03T16:41:45;2.40;;;2.10;;
20076;SDS011;12348;42.710;23.378;2022-10-03T16:44:19;4.30;;;2.60;;
20076;SDS011;12348;42.710;23.378;2022-10-03T16:46:51;2.50;;;2.23;;
20076;SDS011;12348;42.710;23.378;2022-10-03T16:49:29;2.27;;;2.07;;
20076;SDS011;12348;42.710;23.378;2022-10-03T16:52:23;2.63;;;2.43;;
20076;SDS011;12348;42.710;23.378;2022-10-03T16:54:57;4.57;;;2.50;;
20076;SDS011;12348;42.710;23.378;2022-10-03T16:57:28;3.17;;;2.70;;
20076;SDS011;12348;42.710;23.378;2022-10-03T17:00:03;3.97;;;2.97;;
20076;SDS011;12348;42.710;23.378;2022-10-03T17:02:31;3.60;;;2.80;;
20076;SDS011;12348;42.710;23.378;2022-10-03T17:05:03;3.57;;;2.70;;
20076;SDS011;12348;42.710;23.378;2022-10-03T17:07:36;4.43;;;3.37;;
20076;SDS011;12348;42.710;23.378;2022-10-03T17:10:05;6.13;;;3.37;;
20076;SDS011;12348;42.710;23.378;2022-10-03T17:12:47;6.73;;;4.20;;
20076;SDS011;12348;42.710;23.378;2022-10-03T17:15:19;14.53;;;6.27;;
20076;SDS011;12348;42.710;23.378;2022-10-03T17:17:49;4.17;;;3.00;;
20076;SDS011;12348;42.710;23.378;2022-10-03T17:20:27;3.53;;;2.63;;
20076;SDS011;12348;42.710;23.378;2022-10-03T17:23:04;5.50;;;3.83;;
20076;SDS011;12348;42.710;23.378;2022-10-03T17:25:40;2.97;;;2.43;;
20076;SDS011;12348;42.710;23.378;2022-10-03T17:28:17;3.67;;;2.30;;
20076;SDS011;12348;42.710;23.378;2022-10-03T17:30:54;3.00;;;2.23;;
20076;SDS011;12348;42.710;23.378;2022-10-03T17:33:32;5.27;;;2.60;;
20076;SDS011;12348;42.710;23.378;2022-10-03T17:36:22;4.23;;;3.00;;
20076;SDS011;12348;42.710;23.378;2022-10-03T17:39:04;4.23;;;2.37;;
20076;SDS011;12348;42.710;23.378;2022-10-03T17:41:41;3.73;;;2.60;;
20076;SDS011;12348;42.710;23.378;2022-10-03T17:44:17;3.00;;;2.40;;
20076;SDS011;12348;42.710;23.378;2022-10-03T17:46:59;2.73;;;2.53;;
20076;SDS011;12348;42.710;23.378;2022-10-03T17:49:35;3.30;;;3.00;;
20076;SDS011;12348;42.710;23.378;2022-10-03T17:52:11;5.03;;;3.50;;
20076;SDS011;12348;42.710;23.378;2022-10-03T17:54:40;6.77;;;3.90;;
20076;SDS011;12348;42.710;23.378;2022-10-03T17:57:12;5.97;;;4.17;;
20076;SDS011;12348;42.710;23.378;2022-10-03T17:59:46;3.00;;;2.80;;
20076;SDS011;12348;42.710;23.378;2022-10-03T18:02:22;2.90;;;2.50;;
20076;SDS011;12348;42.710;23.378;2022-10-03T18:04:59;3.73;;;2.53;;
20076;SDS011;12348;42.710;23.378;2022-10-03T18:07:39;4.73;;;3.30;;
20076;SDS011;12348;42.710;23.378;2022-10-03T18:10:15;5.17;;;2.87;;
20076;SDS011;12348;42.710;23.378;2022-10-03T18:12:45;5.00;;;3.43;;
20076;SDS011;12348;42.710;23.378;2022-10-03T18:18:24;3.87;;;3.23;;
20076;SDS011;12348;42.710;23.378;2022-10-03T18:21:32;4.07;;;2.17;;
20076;SDS011;12348;42.710;23.378;2022-10-03T18:27:04;5.87;;;3.40;;
20076;SDS011;12348;42.710;23.378;2022-10-03T18:29:40;3.70;;;2.23;;
20076;SDS011;12348;42.710;23.378;2022-10-03T18:32:17;5.00;;;2.90;;
20076;SDS011;12348;42.710;23.378;2022-10-03T18:34:57;4.43;;;2.50;;
20076;SDS011;12348;42.710;23.378;2022-10-03T18:40:24;3.20;;;2.50;;
20076;SDS011;12348;42.710;23.378;2022-10-03T18:42:53;3.30;;;2.40;;
20076;SDS011;12348;42.710;23.378;2022-10-03T18:45:22;2.87;;;2.37;;
20076;SDS011;12348;42.710;23.378;2022-10-03T18:47:55;3.83;;;2.30;;
20076;SDS011;12348;42.710;23.378;2022-10-03T18:50:33;6.23;;;3.60;;
20076;SDS011;12348;42.710;23.378;2022-10-03T18:53:18;2.40;;;1.57;;
20076;SDS011;12348;42.710;23.378;2022-10-03T18:55:53;1.93;;;1.77;;
20076;SDS011;12348;42.710;23.378;2022-10-03T18:58:23;3.87;;;1.73;;
20076;SDS011;12348;42.710;23.378;2022-10-03T19:00:55;2.37;;;2.00;;
20076;SDS011;12348;42.710;23.378;2022-10-03T19:03:27;2.87;;;1.60;;
20076;SDS011;12348;42.710;23.378;2022-10-03T19:06:01;2.93;;;2.17;;
20076;SDS011;12348;42.710;23.378;2022-10-03T19:08:35;1.80;;;1.70;;
20076;SDS011;12348;42.710;23.378;2022-10-03T19:11:09;4.53;;;2.27;;
20076;SDS011;12348;42.710;23.378;2022-10-03T19:13:42;1.93;;;1.73;;
20076;SDS011;12348;42.710;23.378;2022-10-03T19:16:14;2.80;;;2.00;;
20076;SDS011;12348;42.710;23.378;2022-10-03T19:18:50;2.23;;;1.77;;
20076;SDS011;12348;42.710;23.378;2022-10-03T19:21:31;3.47;;;1.70;;
20076;SDS011;12348;42.710;23.378;2022-10-03T19:24:01;1.80;;;1.70;;